sensor_id;sensor_type;location;lat;lon;timestamp;pressure;altitude;pressure_sealevel;temperature;humidity
21904;BME280;11116;51.554;7.812;2022-11-27T00:01:32;101846.19;;;4.55;100.00
21904;BME280;11116;51.554;7.812;2022-11-27T00:03:59;101846.22;;;4.54;100.00
21904;BME280;11116;51.554;7.812;2022-11-27T00:06:27;101831.75;;;4.45;100.00
21904;BME280;11116;51.554;7.812;2022-11-27T00:08:55;101836.00;;;4.48;100.00
21904;BME280;11116;51.554;7.812;2022-11-27T00:11:25;101831.06;;;4.62;100.00
21904;BME280;11116;51.554;7.812;2022-11-27T00:13:52;101821.56;;;4.60;100.00
21904;BME280;11116;51.554;7.812;2022-11-27T00:16:21;101817.88;;;4.43;100.00
21904;BME280;11116;51.554;7.812;2022-11-27T00:18:48;101821.50;;;4.39;100.00
21904;BME280;11116;51.554;7.812;2022-11-27T00:21:17;101818.97;;;4.38;100.00
21904;BME280;11116;51.554;7.812;2022-11-27T00:23:47;101815.16;;;4.46;100.00
21904;BME280;11116;51.554;7.812;2022-11-27T00:26:14;101814.28;;;4.46;100.00
21904;BME280;11116;51.554;7.812;2022-11-27T00:28:42;101816.81;;;4.47;100.00
21904;BME280;11116;51.554;7.812;2022-11-27T00:31:12;101818.69;;;4.22;100.00
21904;BME280;11116;51.554;7.812;2022-11-27T00:33:40;101813.25;;;4.05;100.00
21904;BME280;11116;51.554;7.812;2022-11-27T00:36:08;101817.00;;;3.98;100.00
21904;BME280;11116;51.554;7.812;2022-11-27T00:38:35;101809.38;;;3.92;100.00
21904;BME280;11116;51.554;7.812;2022-11-27T00:41:05;101813.03;;;3.65;100.00
21904;BME280;11116;51.554;7.812;2022-11-27T00:43:32;101824.47;;;3.61;100.00
21904;BME280;11116;51.554;7.812;2022-11-27T00:46:01;101834.88;;;3.62;100.00
21904;BME280;11116;51.554;7.812;2022-11-27T00:48:29;101836.97;;;3.53;100.00
21904;BME280;11116;51.554;7.812;2022-11-27T00:50:58;101845.94;;;3.69;100.00
21904;BME280;11116;51.554;7.812;2022-11-27T00:53:26;101841.38;;;3.75;100.00
21904;BME280;11116;51.554;7.812;2022-11-27T00:55:52;101846.09;;;4.12;100.00
21904;BME280;11116;51.554;7.812;2022-11-27T00:58:19;101846.50;;;4.02;100.00
21904;BME280;11116;51.554;7.812;2022-11-27T01:00:53;101838.84;;;3.97;100.00
21904;BME280;11116;51.554;7.812;2022-11-27T01:03:22;101828.59;;;3.91;100.00
21904;BME280;11116;51.554;7.812;2022-11-27T01:05:49;101825.47;;;3.81;100.00
21904;BME280;11116;51.554;7.812;2022-11-27T01:08:16;101829.25;;;3.73;100.00
21904;BME280;11116;51.554;7.812;2022-11-27T01:10:47;101827.63;;;3.46;100.00
21904;BME280;11116;51.554;7.812;2022-11-27T01:13:14;101838.78;;;3.51;100.00
21904;BME280;11116;51.554;7.812;2022-11-27T01:15:41;101832.63;;;3.27;100.00
21904;BME280;11116;51.554;7.812;2022-11-27T01:18:07;101836.22;;;3.24;100.00
21904;BME280;11116;51.554;7.812;2022-11-27T01:20:38;101834.41;;;3.26;100.00
21904;BME280;11116;51.554;7.812;2022-11-27T01:23:05;101842.53;;;3.17;100.00
21904;BME280;11116;51.554;7.812;2022-11-27T01:25:33;101855.59;;;3.17;100.00
21904;BME280;11116;51.554;7.812;2022-11-27T01:28:00;101852.09;;;2.92;100.00
21904;BME280;11116;51.554;7.812;2022-11-27T01:30:27;101845.50;;;2.80;100.00
21904;BME280;11116;51.554;7.812;2022-11-27T01:32:54;101854.97;;;2.83;100.00
21904;BME280;11116;51.554;7.812;2022-11-27T01:35:21;101844.66;;;2.80;100.00
21904;BME280;11116;51.554;7.812;2022-11-27T01:37:49;101851.91;;;2.70;100.00
21904;BME280;11116;51.554;7.812;2022-11-27T01:40:16;101859.50;;;2.78;100.00
21904;BME280;11116;51.554;7.812;2022-11-27T01:42:43;101854.78;;;2.61;100.00
21904;BME280;11116;51.554;7.812;2022-11-27T01:45:10;101859.00;;;2.67;100.00
21904;BME280;11116;51.554;7.812;2022-11-27T01:47:44;101858.91;;;2.70;100.00
21904;BME280;11116;51.554;7.812;2022-11-27T01:50:19;101859.78;;;2.69;100.00
21904;BME280;11116;51.554;7.812;2022-11-27T01:52:51;101849.69;;;2.58;100.00
21904;BME280;11116;51.554;7.812;2022-11-27T01:55:24;101842.09;;;2.51;100.00
21904;BME280;11116;51.554;7.812;2022-11-27T01:57:56;101848.94;;;2.55;100.00
21904;BME280;11116;51.554;7.812;2022-11-27T02:00:25;101848.00;;;2.28;100.00
21904;BME280;11116;51.554;7.812;2022-11-27T02:02:52;101844.44;;;2.31;100.00
21904;BME280;11116;51.554;7.812;2022-11-27T02:05:21;101848.13;;;2.23;100.00
21904;BME280;11116;51.554;7.812;2022-11-27T02:07:51;101842.63;;;2.34;100.00
21904;BME280;11116;51.554;7.812;2022-11-27T02:10:18;101849.47;;;2.37;100.00
21904;BME280;11116;51.554;7.812;2022-11-27T02:12:51;101843.19;;;2.44;100.00
21904;BME280;11116;51.554;7.812;2022-11-27T02:15:25;101847.78;;;2.36;100.00
21904;BME280;11116;51.554;7.812;2022-11-27T02:18:02;101852.25;;;2.32;100.00
21904;BME280;11116;51.554;7.812;2022-11-27T02:20:42;101852.34;;;2.29;100.00
21904;BME280;11116;51.554;7.812;2022-11-27T02:23:48;101839.66;;;1.86;100.00
21904;BME280;11116;51.554;7.812;2022-11-27T02:26:41;101840.41;;;1.91;100.00
21904;BME280;11116;51.554;7.812;2022-11-27T02:29:16;101847.38;;;1.91;100.00
21904;BME280;11116;51.554;7.812;2022-11-27T02:31:48;101842.34;;;1.85;100.00
21904;BME280;11116;51.554;7.812;2022-11-27T02:34:22;101840.13;;;1.71;100.00
21904;BME280;11116;51.554;7.812;2022-11-27T02:36:54;101835.03;;;1.66;100.00
21904;BME280;11116;51.554;7.812;2022-11-27T02:39:27;101833.75;;;1.81;100.00
21904;BME280;11116;51.554;7.812;2022-11-27T02:42:00;101839.72;;;1.85;100.00
21904;BME280;11116;51.554;7.812;2022-11-27T02:44:33;101840.38;;;1.62;100.00
21904;BME280;11116;51.554;7.812;2022-11-27T02:47:03;101840.56;;;1.54;100.00
21904;BME280;11116;51.554;7.812;2022-11-27T02:49:31;101840.84;;;1.44;100.00
21904;BME280;11116;51.554;7.812;2022-11-27T02:52:00;101847.81;;;1.43;100.00
21904;BME280;11116;51.554;7.812;2022-11-27T02:54:29;101846.59;;;1.56;100.00
21904;BME280;11116;51.554;7.812;2022-11-27T02:56:59;101839.28;;;1.37;100.00
21904;BME280;11116;51.554;7.812;2022-11-27T02:59:30;101835.94;;;1.33;100.00
21904;BME280;11116;51.554;7.812;2022-11-27T03:02:02;101835.88;;;1.36;100.00
21904;BME280;11116;51.554;7.812;2022-11-27T03:04:33;101823.56;;;1.41;100.00
21904;BME280;11116;51.554;7.812;2022-11-27T03:07:06;101828.72;;;1.43;100.00
21904;BME280;11116;51.554;7.812;2022-11-27T03:09:37;101819.66;;;1.57;100.00
21904;BME280;11116;51.554;7.812;2022-11-27T03:12:06;101818.97;;;1.82;100.00
21904;BME280;11116;51.554;7.812;2022-11-27T03:14:37;101826.38;;;1.95;100.00
21904;BME280;11116;51.554;7.812;2022-11-27T03:17:10;101815.50;;;2.40;100.00
21904;BME280;11116;51.554;7.812;2022-11-27T03:19:45;101802.84;;;2.55;100.00
21904;BME280;11116;51.554;7.812;2022-11-27T03:22:14;101788.88;;;2.56;100.00
21904;BME280;11116;51.554;7.812;2022-11-27T03:24:42;101772.59;;;2.50;100.00
21904;BME280;11116;51.554;7.812;2022-11-27T03:27:11;101759.00;;;2.40;100.00
21904;BME280;11116;51.554;7.812;2022-11-27T03:29:46;101743.88;;;2.23;100.00
21904;BME280;11116;51.554;7.812;2022-11-27T03:32:14;101742.00;;;2.28;100.00
21904;BME280;11116;51.554;7.812;2022-11-27T03:34:42;101728.97;;;2.28;100.00
21904;BME280;11116;51.554;7.812;2022-11-27T03:37:09;101726.56;;;2.49;100.00
21904;BME280;11116;51.554;7.812;2022-11-27T03:39:36;101718.25;;;2.38;100.00
21904;BME280;11116;51.554;7.812;2022-11-27T03:42:10;101716.63;;;2.34;100.00
21904;BME280;11116;51.554;7.812;2022-11-27T03:44:45;101710.22;;;2.17;100.00
21904;BME280;11116;51.554;7.812;2022-11-27T03:47:22;101708.84;;;2.06;100.00
21904;BME280;11116;51.554;7.812;2022-11-27T03:49:58;101706.28;;;2.04;100.00
21904;BME280;11116;51.554;7.812;2022-11-27T03:52:34;101706.09;;;1.83;100.00
21904;BME280;11116;51.554;7.812;2022-11-27T03:55:08;101709.06;;;2.26;100.00
21904;BME280;11116;51.554;7.812;2022-11-27T03:57:41;101711.47;;;2.32;100.00
21904;BME280;11116;51.554;7.812;2022-11-27T04:00:12;101718.44;;;2.32;100.00
21904;BME280;11116;51.554;7.812;2022-11-27T04:02:42;101712.19;;;2.09;100.00
21904;BME280;11116;51.554;7.812;2022-11-27T04:05:10;101720.53;;;1.93;100.00
21904;BME280;11116;51.554;7.812;2022-11-27T04:07:37;101716.09;;;1.96;100.00
21904;BME280;11116;51.554;7.812;2022-11-27T04:10:06;101704.63;;;2.02;100.00
21904;BME280;11116;51.554;7.812;2022-11-27T04:12:33;101706.47;;;1.98;100.00
21904;BME280;11116;51.554;7.812;2022-11-27T04:14:59;101708.03;;;2.04;100.00
21904;BME280;11116;51.554;7.812;2022-11-27T04:17:28;101702.09;;;1.99;100.00
21904;BME280;11116;51.554;7.812;2022-11-27T04:19:54;101705.50;;;2.01;100.00
21904;BME280;11116;51.554;7.812;2022-11-27T04:22:21;101699.50;;;1.99;100.00
21904;BME280;11116;51.554;7.812;2022-11-27T04:24:48;101693.50;;;1.97;100.00
21904;BME280;11116;51.554;7.812;2022-11-27T04:27:15;101696.84;;;2.00;100.00
21904;BME280;11116;51.554;7.812;2022-11-27T04:29:42;101696.28;;;1.91;100.00
21904;BME280;11116;51.554;7.812;2022-11-27T04:32:09;101692.81;;;1.90;100.00
21904;BME280;11116;51.554;7.812;2022-11-27T04:34:37;101694.91;;;2.07;100.00
21904;BME280;11116;51.554;7.812;2022-11-27T04:37:04;101688.31;;;2.23;100.00
21904;BME280;11116;51.554;7.812;2022-11-27T04:39:30;101684.09;;;2.19;100.00
21904;BME280;11116;51.554;7.812;2022-11-27T04:41:57;101675.28;;;2.74;100.00
21904;BME280;11116;51.554;7.812;2022-11-27T04:44:24;101653.84;;;2.66;100.00
21904;BME280;11116;51.554;7.812;2022-11-27T04:46:51;101653.25;;;2.82;100.00
21904;BME280;11116;51.554;7.812;2022-11-27T04:49:18;101644.34;;;3.36;100.00
21904;BME280;11116;51.554;7.812;2022-11-27T04:51:46;101634.09;;;3.75;100.00
21904;BME280;11116;51.554;7.812;2022-11-27T04:54:13;101608.16;;;3.92;100.00
21904;BME280;11116;51.554;7.812;2022-11-27T04:56:40;101586.97;;;4.20;100.00
21904;BME280;11116;51.554;7.812;2022-11-27T04:59:06;101559.19;;;4.17;100.00
21904;BME280;11116;51.554;7.812;2022-11-27T05:01:33;101545.53;;;4.31;100.00
21904;BME280;11116;51.554;7.812;2022-11-27T05:04:00;101534.34;;;4.27;100.00
21904;BME280;11116;51.554;7.812;2022-11-27T05:06:27;101528.59;;;4.39;100.00
21904;BME280;11116;51.554;7.812;2022-11-27T05:08:55;101524.94;;;4.43;100.00
21904;BME280;11116;51.554;7.812;2022-11-27T05:11:26;101523.66;;;4.52;100.00
21904;BME280;11116;51.554;7.812;2022-11-27T05:13:53;101511.44;;;4.52;100.00
21904;BME280;11116;51.554;7.812;2022-11-27T05:16:39;101491.75;;;4.64;100.00
21904;BME280;11116;51.554;7.812;2022-11-27T05:19:07;101490.38;;;4.55;100.00
21904;BME280;11116;51.554;7.812;2022-11-27T05:21:35;101485.84;;;4.59;100.00
21904;BME280;11116;51.554;7.812;2022-11-27T05:24:04;101477.00;;;4.62;100.00
21904;BME280;11116;51.554;7.812;2022-11-27T05:26:31;101472.75;;;4.59;100.00
21904;BME280;11116;51.554;7.812;2022-11-27T05:28:58;101477.63;;;4.48;100.00
21904;BME280;11116;51.554;7.812;2022-11-27T05:31:25;101475.38;;;4.59;100.00
21904;BME280;11116;51.554;7.812;2022-11-27T05:33:52;101469.31;;;4.77;100.00
21904;BME280;11116;51.554;7.812;2022-11-27T05:36:18;101458.63;;;4.63;100.00
21904;BME280;11116;51.554;7.812;2022-11-27T05:38:45;101459.41;;;4.65;100.00
21904;BME280;11116;51.554;7.812;2022-11-27T05:41:13;101454.88;;;4.69;100.00
21904;BME280;11116;51.554;7.812;2022-11-27T05:43:40;101433.53;;;4.78;100.00
21904;BME280;11116;51.554;7.812;2022-11-27T05:46:09;101428.72;;;4.87;100.00
21904;BME280;11116;51.554;7.812;2022-11-27T05:48:36;101422.13;;;4.97;100.00
21904;BME280;11116;51.554;7.812;2022-11-27T05:51:03;101410.72;;;4.98;100.00
21904;BME280;11116;51.554;7.812;2022-11-27T05:53:30;101414.69;;;5.07;100.00
21904;BME280;11116;51.554;7.812;2022-11-27T05:56:00;101398.16;;;5.05;100.00
21904;BME280;11116;51.554;7.812;2022-11-27T05:58:28;101399.97;;;5.04;100.00
21904;BME280;11116;51.554;7.812;2022-11-27T06:00:55;101407.53;;;5.10;100.00
21904;BME280;11116;51.554;7.812;2022-11-27T06:03:23;101409.75;;;5.18;100.00
21904;BME280;11116;51.554;7.812;2022-11-27T06:05:50;101416.72;;;5.19;100.00
21904;BME280;11116;51.554;7.812;2022-11-27T06:08:17;101433.06;;;5.05;100.00
21904;BME280;11116;51.554;7.812;2022-11-27T06:10:44;101431.97;;;4.92;100.00
21904;BME280;11116;51.554;7.812;2022-11-27T06:13:11;101436.28;;;4.75;100.00
21904;BME280;11116;51.554;7.812;2022-11-27T06:15:40;101440.31;;;4.63;100.00
21904;BME280;11116;51.554;7.812;2022-11-27T06:18:08;101440.81;;;4.52;100.00
21904;BME280;11116;51.554;7.812;2022-11-27T06:20:36;101445.53;;;4.44;100.00
21904;BME280;11116;51.554;7.812;2022-11-27T06:23:03;101440.69;;;4.35;100.00
21904;BME280;11116;51.554;7.812;2022-11-27T06:25:30;101438.97;;;4.54;100.00
21904;BME280;11116;51.554;7.812;2022-11-27T06:27:56;101437.41;;;4.69;100.00
21904;BME280;11116;51.554;7.812;2022-11-27T06:30:23;101425.75;;;4.57;100.00
21904;BME280;11116;51.554;7.812;2022-11-27T06:32:51;101431.47;;;4.66;100.00
21904;BME280;11116;51.554;7.812;2022-11-27T06:35:18;101424.44;;;4.85;100.00
21904;BME280;11116;51.554;7.812;2022-11-27T06:37:45;101430.34;;;4.71;100.00
21904;BME280;11116;51.554;7.812;2022-11-27T06:40:12;101442.09;;;4.63;100.00
21904;BME280;11116;51.554;7.812;2022-11-27T06:42:39;101445.69;;;4.60;100.00
21904;BME280;11116;51.554;7.812;2022-11-27T06:45:06;101444.41;;;4.50;100.00
21904;BME280;11116;51.554;7.812;2022-11-27T06:47:33;101446.53;;;4.61;100.00
21904;BME280;11116;51.554;7.812;2022-11-27T06:50:01;101446.66;;;4.76;100.00
21904;BME280;11116;51.554;7.812;2022-11-27T06:52:28;101429.69;;;4.85;100.00
21904;BME280;11116;51.554;7.812;2022-11-27T06:54:55;101427.28;;;4.99;100.00
21904;BME280;11116;51.554;7.812;2022-11-27T06:57:22;101427.25;;;5.18;100.00
21904;BME280;11116;51.554;7.812;2022-11-27T06:59:48;101411.94;;;5.27;100.00
21904;BME280;11116;51.554;7.812;2022-11-27T07:02:15;101427.50;;;5.30;100.00
21904;BME280;11116;51.554;7.812;2022-11-27T07:04:42;101416.56;;;5.22;100.00
21904;BME280;11116;51.554;7.812;2022-11-27T07:07:10;101409.75;;;5.18;100.00
21904;BME280;11116;51.554;7.812;2022-11-27T07:09:37;101418.53;;;5.17;100.00
21904;BME280;11116;51.554;7.812;2022-11-27T07:12:04;101408.69;;;5.22;100.00
21904;BME280;11116;51.554;7.812;2022-11-27T07:14:32;101415.84;;;5.19;100.00
21904;BME280;11116;51.554;7.812;2022-11-27T07:16:59;101404.13;;;5.26;100.00
21904;BME280;11116;51.554;7.812;2022-11-27T07:19:26;101405.53;;;5.33;100.00
21904;BME280;11116;51.554;7.812;2022-11-27T07:21:53;101412.84;;;5.26;100.00
21904;BME280;11116;51.554;7.812;2022-11-27T07:24:21;101399.75;;;5.43;100.00
21904;BME280;11116;51.554;7.812;2022-11-27T07:26:48;101394.75;;;5.39;100.00
21904;BME280;11116;51.554;7.812;2022-11-27T07:29:14;101387.75;;;5.22;100.00
21904;BME280;11116;51.554;7.812;2022-11-27T07:31:41;101402.06;;;5.32;100.00
21904;BME280;11116;51.554;7.812;2022-11-27T07:34:08;101393.03;;;5.21;100.00
21904;BME280;11116;51.554;7.812;2022-11-27T07:36:35;101399.84;;;5.25;100.00
21904;BME280;11116;51.554;7.812;2022-11-27T07:39:02;101401.59;;;5.24;100.00
21904;BME280;11116;51.554;7.812;2022-11-27T07:41:30;101398.13;;;5.24;100.00
21904;BME280;11116;51.554;7.812;2022-11-27T07:43:57;101395.94;;;5.50;100.00
21904;BME280;11116;51.554;7.812;2022-11-27T07:46:23;101385.34;;;5.69;100.00
21904;BME280;11116;51.554;7.812;2022-11-27T07:48:51;101379.31;;;5.84;100.00
21904;BME280;11116;51.554;7.812;2022-11-27T07:51:19;101372.09;;;5.89;100.00
21904;BME280;11116;51.554;7.812;2022-11-27T07:53:47;101368.97;;;5.98;100.00
21904;BME280;11116;51.554;7.812;2022-11-27T07:56:16;101367.91;;;6.02;100.00
21904;BME280;11116;51.554;7.812;2022-11-27T07:58:44;101356.94;;;6.11;100.00
21904;BME280;11116;51.554;7.812;2022-11-27T08:01:13;101351.59;;;6.13;100.00
21904;BME280;11116;51.554;7.812;2022-11-27T08:03:40;101355.44;;;6.23;100.00
21904;BME280;11116;51.554;7.812;2022-11-27T08:06:14;101351.69;;;6.27;100.00
21904;BME280;11116;51.554;7.812;2022-11-27T08:08:41;101358.31;;;6.34;100.00
21904;BME280;11116;51.554;7.812;2022-11-27T08:11:14;101346.56;;;6.41;100.00
21904;BME280;11116;51.554;7.812;2022-11-27T08:13:41;101344.88;;;6.40;100.00
21904;BME280;11116;51.554;7.812;2022-11-27T08:16:09;101338.44;;;6.46;100.00
21904;BME280;11116;51.554;7.812;2022-11-27T08:18:36;101343.69;;;6.46;100.00
21904;BME280;11116;51.554;7.812;2022-11-27T08:21:03;101333.63;;;6.38;100.00
21904;BME280;11116;51.554;7.812;2022-11-27T08:23:30;101332.16;;;6.48;100.00
21904;BME280;11116;51.554;7.812;2022-11-27T08:25:57;101334.44;;;6.54;100.00
21904;BME280;11116;51.554;7.812;2022-11-27T08:28:24;101325.22;;;6.47;100.00
21904;BME280;11116;51.554;7.812;2022-11-27T08:30:55;101326.84;;;6.50;100.00
21904;BME280;11116;51.554;7.812;2022-11-27T08:33:24;101323.38;;;6.49;100.00
21904;BME280;11116;51.554;7.812;2022-11-27T08:35:51;101321.59;;;6.50;100.00
21904;BME280;11116;51.554;7.812;2022-11-27T08:38:19;101304.66;;;6.55;100.00
21904;BME280;11116;51.554;7.812;2022-11-27T08:40:52;101294.97;;;6.71;100.00
21904;BME280;11116;51.554;7.812;2022-11-27T08:43:19;101300.00;;;6.60;100.00
21904;BME280;11116;51.554;7.812;2022-11-27T08:45:46;101291.84;;;6.65;100.00
21904;BME280;11116;51.554;7.812;2022-11-27T08:48:13;101279.16;;;6.73;100.00
21904;BME280;11116;51.554;7.812;2022-11-27T08:50:42;101275.31;;;6.78;100.00
21904;BME280;11116;51.554;7.812;2022-11-27T08:53:08;101274.28;;;6.81;100.00
21904;BME280;11116;51.554;7.812;2022-11-27T08:55:35;101263.97;;;6.78;100.00
21904;BME280;11116;51.554;7.812;2022-11-27T08:58:02;101260.28;;;6.96;100.00
21904;BME280;11116;51.554;7.812;2022-11-27T09:00:29;101249.63;;;7.13;100.00
21904;BME280;11116;51.554;7.812;2022-11-27T09:02:57;101244.09;;;7.32;100.00
21904;BME280;11116;51.554;7.812;2022-11-27T09:05:25;101241.97;;;7.38;100.00
21904;BME280;11116;51.554;7.812;2022-11-27T09:07:53;101236.63;;;7.54;99.30
21904;BME280;11116;51.554;7.812;2022-11-27T09:10:20;101229.19;;;7.61;97.48
21904;BME280;11116;51.554;7.812;2022-11-27T09:12:48;101220.25;;;7.63;96.46
21904;BME280;11116;51.554;7.812;2022-11-27T09:15:15;101207.31;;;7.74;94.90
21904;BME280;11116;51.554;7.812;2022-11-27T09:17:42;101211.78;;;8.01;93.20
21904;BME280;11116;51.554;7.812;2022-11-27T09:20:10;101196.81;;;8.01;92.28
21904;BME280;11116;51.554;7.812;2022-11-27T09:22:38;101198.31;;;8.05;91.42
21904;BME280;11116;51.554;7.812;2022-11-27T09:25:07;101202.06;;;8.15;90.88
21904;BME280;11116;51.554;7.812;2022-11-27T09:27:35;101195.19;;;8.27;90.32
21904;BME280;11116;51.554;7.812;2022-11-27T09:30:05;101185.66;;;8.24;90.04
21904;BME280;11116;51.554;7.812;2022-11-27T09:32:33;101190.38;;;8.33;88.74
21904;BME280;11116;51.554;7.812;2022-11-27T09:34:59;101190.81;;;8.40;88.38
21904;BME280;11116;51.554;7.812;2022-11-27T09:37:26;101173.31;;;8.39;87.36
21904;BME280;11116;51.554;7.812;2022-11-27T09:39:53;101185.88;;;8.35;87.07
21904;BME280;11116;51.554;7.812;2022-11-27T09:42:34;101176.72;;;8.41;87.29
21904;BME280;11116;51.554;7.812;2022-11-27T09:45:03;101180.22;;;8.41;87.12
21904;BME280;11116;51.554;7.812;2022-11-27T09:47:35;101162.91;;;8.37;86.50
21904;BME280;11116;51.554;7.812;2022-11-27T09:50:06;101158.16;;;8.30;85.92
21904;BME280;11116;51.554;7.812;2022-11-27T09:52:41;101169.06;;;8.24;86.29
21904;BME280;11116;51.554;7.812;2022-11-27T09:55:13;101168.78;;;8.28;86.27
21904;BME280;11116;51.554;7.812;2022-11-27T09:57:45;101172.41;;;8.40;86.50
21904;BME280;11116;51.554;7.812;2022-11-27T10:00:17;101181.03;;;8.42;85.51
21904;BME280;11116;51.554;7.812;2022-11-27T10:02:44;101181.66;;;8.45;84.22
21904;BME280;11116;51.554;7.812;2022-11-27T10:05:15;101182.75;;;8.56;84.24
21904;BME280;11116;51.554;7.812;2022-11-27T10:08:05;101210.94;;;8.68;84.48
21904;BME280;11116;51.554;7.812;2022-11-27T10:10:39;101201.38;;;8.79;82.06
21904;BME280;11116;51.554;7.812;2022-11-27T10:13:17;101200.19;;;8.83;82.57
21904;BME280;11116;51.554;7.812;2022-11-27T10:15:51;101187.00;;;8.71;82.40
21904;BME280;11116;51.554;7.812;2022-11-27T10:18:27;101187.97;;;8.82;83.14
21904;BME280;11116;51.554;7.812;2022-11-27T10:20:58;101169.44;;;8.84;83.04
21904;BME280;11116;51.554;7.812;2022-11-27T10:23:39;101179.44;;;8.79;82.92
21904;BME280;11116;51.554;7.812;2022-11-27T10:26:13;101189.53;;;8.72;83.18
21904;BME280;11116;51.554;7.812;2022-11-27T10:28:50;101196.31;;;8.76;82.39
21904;BME280;11116;51.554;7.812;2022-11-27T10:31:30;101189.22;;;8.77;81.37
21904;BME280;11116;51.554;7.812;2022-11-27T10:34:01;101184.09;;;8.88;80.79
21904;BME280;11116;51.554;7.812;2022-11-27T10:36:33;101181.34;;;8.89;81.52
21904;BME280;11116;51.554;7.812;2022-11-27T10:39:02;101181.47;;;8.88;81.29
21904;BME280;11116;51.554;7.812;2022-11-27T10:41:33;101167.66;;;8.84;80.67
21904;BME280;11116;51.554;7.812;2022-11-27T10:44:16;101173.22;;;8.80;80.86
21904;BME280;11116;51.554;7.812;2022-11-27T10:46:47;101173.44;;;8.89;80.96
21904;BME280;11116;51.554;7.812;2022-11-27T10:49:16;101155.00;;;9.15;79.45
21904;BME280;11116;51.554;7.812;2022-11-27T10:51:42;101160.59;;;8.97;78.44
21904;BME280;11116;51.554;7.812;2022-11-27T10:54:16;101152.25;;;9.03;78.32
21904;BME280;11116;51.554;7.812;2022-11-27T10:56:57;101146.78;;;9.19;77.86
21904;BME280;11116;51.554;7.812;2022-11-27T10:59:33;101126.44;;;9.08;76.71
21904;BME280;11116;51.554;7.812;2022-11-27T11:02:03;101130.03;;;9.07;77.16
21904;BME280;11116;51.554;7.812;2022-11-27T11:04:32;101137.59;;;9.25;77.51
21904;BME280;11116;51.554;7.812;2022-11-27T11:07:00;101132.63;;;9.33;76.55
21904;BME280;11116;51.554;7.812;2022-11-27T11:09:28;101119.44;;;9.33;76.84
21904;BME280;11116;51.554;7.812;2022-11-27T11:12:06;101114.69;;;9.50;76.07
21904;BME280;11116;51.554;7.812;2022-11-27T11:14:34;101107.31;;;9.43;76.54
21904;BME280;11116;51.554;7.812;2022-11-27T11:17:14;101113.72;;;9.51;75.75
21904;BME280;11116;51.554;7.812;2022-11-27T11:19:41;101104.84;;;9.52;74.40
21904;BME280;11116;51.554;7.812;2022-11-27T11:22:12;101100.63;;;9.50;74.15
21904;BME280;11116;51.554;7.812;2022-11-27T11:24:44;101112.19;;;9.36;73.89
21904;BME280;11116;51.554;7.812;2022-11-27T11:27:14;101113.53;;;9.42;73.66
21904;BME280;11116;51.554;7.812;2022-11-27T11:29:46;101122.22;;;9.31;74.65
21904;BME280;11116;51.554;7.812;2022-11-27T11:32:20;101113.31;;;9.57;73.83
21904;BME280;11116;51.554;7.812;2022-11-27T11:34:50;101122.94;;;9.46;75.88
21904;BME280;11116;51.554;7.812;2022-11-27T11:37:21;101130.94;;;9.32;76.42
21904;BME280;11116;51.554;7.812;2022-11-27T11:39:54;101113.25;;;9.34;74.80
21904;BME280;11116;51.554;7.812;2022-11-27T11:42:23;101111.88;;;9.28;75.51
21904;BME280;11116;51.554;7.812;2022-11-27T11:44:53;101104.56;;;9.32;75.79
21904;BME280;11116;51.554;7.812;2022-11-27T11:47:22;101102.78;;;9.32;74.56
21904;BME280;11116;51.554;7.812;2022-11-27T11:49:53;101107.19;;;9.44;76.94
21904;BME280;11116;51.554;7.812;2022-11-27T11:52:35;101105.16;;;9.60;79.19
21904;BME280;11116;51.554;7.812;2022-11-27T11:55:13;101111.44;;;9.34;79.16
21904;BME280;11116;51.554;7.812;2022-11-27T11:57:55;101100.06;;;9.34;78.28
21904;BME280;11116;51.554;7.812;2022-11-27T12:00:28;101082.84;;;9.41;75.41
21904;BME280;11116;51.554;7.812;2022-11-27T12:03:25;101076.56;;;9.31;75.31
21904;BME280;11116;51.554;7.812;2022-11-27T12:06:06;101068.94;;;9.39;75.21
21904;BME280;11116;51.554;7.812;2022-11-27T12:08:48;101080.88;;;9.68;78.37
21904;BME280;11116;51.554;7.812;2022-11-27T12:11:23;101066.81;;;9.68;77.25
21904;BME280;11116;51.554;7.812;2022-11-27T12:14:08;101060.66;;;9.80;76.20
21904;BME280;11116;51.554;7.812;2022-11-27T12:16:49;101064.59;;;9.98;76.73
21904;BME280;11116;51.554;7.812;2022-11-27T12:19:45;101041.06;;;9.71;75.15
21904;BME280;11116;51.554;7.812;2022-11-27T12:22:24;101048.63;;;9.76;75.88
21904;BME280;11116;51.554;7.812;2022-11-27T12:25:01;101021.34;;;9.88;73.75
21904;BME280;11116;51.554;7.812;2022-11-27T12:27:38;101023.31;;;9.97;74.10
21904;BME280;11116;51.554;7.812;2022-11-27T12:30:11;101018.16;;;9.95;73.16
21904;BME280;11116;51.554;7.812;2022-11-27T12:33:05;100998.94;;;9.93;71.56
21904;BME280;11116;51.554;7.812;2022-11-27T12:35:42;100994.16;;;9.98;72.15
21904;BME280;11116;51.554;7.812;2022-11-27T12:38:28;100982.91;;;10.07;71.10
21904;BME280;11116;51.554;7.812;2022-11-27T12:41:15;100985.44;;;9.98;72.51
21904;BME280;11116;51.554;7.812;2022-11-27T12:43:49;100976.19;;;9.92;72.30
21904;BME280;11116;51.554;7.812;2022-11-27T12:46:23;100968.34;;;10.14;71.08
21904;BME280;11116;51.554;7.812;2022-11-27T12:48:57;100968.34;;;10.14;72.02
21904;BME280;11116;51.554;7.812;2022-11-27T12:51:28;100948.47;;;9.98;71.48
21904;BME280;11116;51.554;7.812;2022-11-27T12:54:01;100951.59;;;10.03;71.10
21904;BME280;11116;51.554;7.812;2022-11-27T12:56:32;100948.16;;;9.79;70.85
21904;BME280;11116;51.554;7.812;2022-11-27T12:59:08;100943.66;;;9.81;71.34
21904;BME280;11116;51.554;7.812;2022-11-27T13:01:41;100933.31;;;9.78;71.44
21904;BME280;11116;51.554;7.812;2022-11-27T13:04:17;100929.56;;;9.69;71.09
21904;BME280;11116;51.554;7.812;2022-11-27T13:06:52;100927.75;;;9.70;71.11
21904;BME280;11116;51.554;7.812;2022-11-27T13:09:26;100927.66;;;9.71;72.38